Time;durP1;ratioP1;P1;durP2;ratioP2;P2;SDS_P1;SDS_P2;PMS_P1;PMS_P2;Temp;Humidity;BMP_temperature;BMP_pressure;BME280_temperature;BME280_humidity;BME280_pressure;Samples;Min_cycle;Max_cycle;Signal;HPM_P1;HPM_P2
2023/03/13 00:02:22;;;;;;;0.90;0.20;;;;;;;0.67;56.99;100567.81;104937;1265;59649;-56
2023/03/13 00:04:50;;;;;;;2.70;0.90;;;;;;;0.63;56.96;100571.77;105052;1262;61349;-55
2023/03/13 00:07:29;;;;;;;2.40;0.40;;;;;;;0.58;57.01;100578.83;104936;1265;73977;-55
2023/03/13 00:10:17;;;;;;;1.10;0.50;;;;;;;0.54;57.06;100581.73;104914;1265;64387;-55
2023/03/13 00:12:46;;;;;;;2.60;0.70;;;;;;;0.51;57.15;100587.55;105009;1267;74106;-54
2023/03/13 00:15:17;;;;;;;1.00;0.30;;;;;;;0.47;57.11;100587.34;104959;1263;59649;-54
2023/03/13 00:17:49;;;;;;;0.80;0.20;;;;;;;0.44;57.13;100586.92;104907;1262;61345;-54
2023/03/13 00:20:18;;;;;;;1.30;0.20;;;;;;;0.40;57.29;100593.97;104995;1265;73599;-55
2023/03/13 00:22:52;;;;;;;2.10;0.50;;;;;;;0.36;57.35;100591.35;104972;1263;71225;-54
2023/03/13 00:25:20;;;;;;;1.90;0.70;;;;;;;0.33;57.52;100591.10;105113;1266;73925;-56
2023/03/13 00:27:49;;;;;;;0.60;0.10;;;;;;;0.30;57.78;100592.23;104970;1263;60574;-55
2023/03/13 00:30:21;;;;;;;1.80;0.50;;;;;;;0.27;57.69;100594.60;104999;1263;61368;-56
2023/03/13 00:32:55;;;;;;;1.60;0.40;;;;;;;0.25;57.86;100590.14;105358;1262;73911;-54
2023/03/13 00:35:24;;;;;;;1.20;0.30;;;;;;;0.22;57.88;100590.44;105001;1265;71258;-54
2023/03/13 00:37:53;;;;;;;0.90;0.10;;;;;;;0.21;57.89;100584.95;105019;1266;73638;-54
2023/03/13 00:40:26;;;;;;;0.50;0.10;;;;;;;0.20;58.01;100588.10;104910;1266;59643;-54
2023/03/13 00:42:56;;;;;;;3.90;0.40;;;;;;;0.19;58.03;100584.67;105252;1262;61026;-54
2023/03/13 00:45:26;;;;;;;2.10;0.50;;;;;;;0.17;57.97;100584.21;104503;1262;74271;-55
2023/03/13 00:47:54;;;;;;;0.70;0.20;;;;;;;0.15;58.14;100581.35;104627;1263;71246;-53
2023/03/13 00:50:27;;;;;;;3.80;0.70;;;;;;;0.13;58.20;100581.95;104484;1266;73611;-54
2023/03/13 00:52:56;;;;;;;2.50;0.20;;;;;;;0.13;58.29;100575.55;104593;1262;62744;-54
2023/03/13 00:55:24;;;;;;;1.40;0.50;;;;;;;0.23;58.06;100576.10;104806;1262;60121;-54
2023/03/13 00:57:53;;;;;;;1.40;0.20;;;;;;;0.32;57.87;100580.24;104733;1268;73914;-54
2023/03/13 01:00:22;;;;;;;2.30;0.40;;;;;;;0.39;57.77;100578.98;104662;1263;71239;-54
2023/03/13 01:02:53;;;;;;;1.40;0.20;;;;;;;0.43;57.57;100583.70;104936;1268;73766;-53
2023/03/13 01:05:22;;;;;;;0.80;0.20;;;;;;;0.41;57.46;100584.61;104717;1263;59683;-54
2023/03/13 01:07:51;;;;;;;1.60;0.30;;;;;;;0.42;57.35;100583.38;104664;1263;60049;-53
2023/03/13 01:10:25;;;;;;;1.90;0.30;;;;;;;0.40;57.25;100585.00;104598;1265;74003;-55
2023/03/13 01:12:53;;;;;;;1.80;0.60;;;;;;;0.37;57.29;100588.89;104997;1266;70675;-54
2023/03/13 01:15:23;;;;;;;5.70;1.80;;;;;;;0.33;57.33;100589.02;104924;1265;72578;-54
2023/03/13 01:17:53;;;;;;;4.10;0.60;;;;;;;0.29;57.36;100590.89;105306;1263;60845;-53
2023/03/13 01:20:25;;;;;;;5.60;0.80;;;;;;;0.25;57.47;100588.27;104918;1263;61123;-54
2023/03/13 01:22:54;;;;;;;2.30;0.70;;;;;;;0.22;57.59;100588.56;105292;1263;73473;-54
2023/03/13 01:25:25;;;;;;;0.70;0.20;;;;;;;0.16;57.57;100589.93;104898;1263;71081;-54
2023/03/13 01:27:53;;;;;;;1.90;0.70;;;;;;;0.12;57.71;100591.81;104912;1268;73569;-54
2023/03/13 01:30:22;;;;;;;1.10;0.40;;;;;;;0.07;57.90;100585.23;104997;1262;60626;-54
2023/03/13 01:32:55;;;;;;;1.20;0.40;;;;;;;0.07;57.91;100590.44;104978;1262;61345;-54
2023/03/13 01:35:25;;;;;;;4.80;1.40;;;;;;;0.01;58.07;100592.00;105031;1262;74053;-55
2023/03/13 01:37:55;;;;;;;1.40;0.30;;;;;;;-0.02;58.20;100591.23;104959;1264;71341;-54
2023/03/13 01:40:24;;;;;;;0.80;0.20;;;;;;;-0.05;58.29;100597.20;105509;1263;73627;-54
2023/03/13 01:42:57;;;;;;;2.90;0.90;;;;;;;-0.07;58.34;100606.40;105168;1262;59660;-54
2023/03/13 01:45:56;;;;;;;3.60;1.00;;;;;;;-0.07;58.46;100613.14;104963;1265;60087;-53
2023/03/13 01:48:35;;;;;;;1.60;0.70;;;;;;;-0.08;58.39;100620.75;104929;1263;64417;-54
2023/03/13 01:51:11;;;;;;;1.90;0.60;;;;;;;-0.10;58.39;100627.36;105012;1263;71822;-55
2023/03/13 01:53:42;;;;;;;5.40;0.70;;;;;;;-0.11;58.40;100629.82;105001;1263;73731;-55
2023/03/13 01:56:22;;;;;;;1.50;0.40;;;;;;;-0.12;58.30;100634.65;104837;1262;60627;-55
2023/03/13 01:58:51;;;;;;;2.00;0.40;;;;;;;-0.12;58.18;100639.67;104944;1263;61009;-56
2023/03/13 02:01:19;;;;;;;4.60;0.60;;;;;;;-0.12;58.11;100642.45;104901;1268;73613;-55
2023/03/13 02:03:49;;;;;;;1.20;0.30;;;;;;;-0.13;57.99;100642.66;104967;1265;71397;-55
2023/03/13 02:06:18;;;;;;;1.30;0.30;;;;;;;-0.15;57.92;100647.88;105062;1267;73700;-56
2023/03/13 02:08:53;;;;;;;1.10;0.20;;;;;;;-0.16;58.03;100652.73;105010;1265;61342;-54
2023/03/13 02:11:27;;;;;;;1.70;0.20;;;;;;;-0.19;58.05;100654.70;105113;1263;61088;-54
2023/03/13 02:13:56;;;;;;;3.30;0.50;;;;;;;-0.21;58.11;100657.69;105032;1265;73050;-55
2023/03/13 02:16:25;;;;;;;2.20;0.60;;;;;;;-0.21;58.28;100659.94;104870;1267;70992;-54
2023/03/13 02:18:54;;;;;;;1.60;0.50;;;;;;;-0.20;58.22;100662.84;104974;1269;73710;-54
2023/03/13 02:21:41;;;;;;;1.90;0.20;;;;;;;-0.15;58.03;100667.52;104923;1264;59736;-54
2023/03/13 02:24:13;;;;;;;1.80;0.10;;;;;;;-0.05;57.88;100662.73;104796;1263;61155;-54
2023/03/13 02:26:41;;;;;;;2.00;0.30;;;;;;;0.05;57.50;100664.48;105014;1265;73989;-54
2023/03/13 02:29:17;;;;;;;1.50;0.30;;;;;;;0.14;57.17;100670.73;104982;1263;70937;-54
2023/03/13 02:31:46;;;;;;;3.20;0.40;;;;;;;0.25;56.99;100670.77;105279;1265;73640;-54
2023/03/13 02:34:18;;;;;;;3.10;0.40;;;;;;;0.29;56.95;100674.57;104970;1263;60577;-54
2023/03/13 02:36:47;;;;;;;2.90;0.50;;;;;;;0.30;56.91;100674.04;104971;1263;61407;-53
2023/03/13 02:39:16;;;;;;;1.50;0.40;;;;;;;0.29;56.75;100673.54;104975;1266;74028;-54
2023/03/13 02:41:44;;;;;;;2.30;0.50;;;;;;;0.28;56.76;100677.91;105008;1267;70253;-54
2023/03/13 02:44:13;;;;;;;2.20;0.90;;;;;;;0.25;56.92;100677.48;104899;1267;73041;-54
2023/03/13 02:46:46;;;;;;;2.50;0.50;;;;;;;0.22;56.93;100681.05;105027;1263;60476;-56
2023/03/13 02:49:22;;;;;;;2.50;0.60;;;;;;;0.17;57.12;100680.84;105028;1265;61572;-56
2023/03/13 02:51:57;;;;;;;4.50;2.00;;;;;;;0.13;57.26;100681.31;105035;1265;74035;-55
2023/03/13 02:54:33;;;;;;;1.80;0.40;;;;;;;0.10;57.40;100683.30;104999;1263;71228;-55
2023/03/13 02:57:02;;;;;;;1.20;0.30;;;;;;;0.08;57.44;100684.39;105045;1269;73779;-55
2023/03/13 02:59:31;;;;;;;0.90;0.30;;;;;;;0.05;57.45;100683.99;105049;1262;60417;-55
2023/03/13 03:02:00;;;;;;;4.50;0.80;;;;;;;0.00;57.64;100682.40;104935;1264;61347;-53
2023/03/13 03:04:29;;;;;;;2.40;0.70;;;;;;;-0.02;57.70;100689.19;104997;1269;73991;-53
2023/03/13 03:06:58;;;;;;;2.10;0.60;;;;;;;-0.05;57.80;100695.32;105018;1265;70299;-54
2023/03/13 03:09:27;;;;;;;2.50;0.40;;;;;;;-0.07;58.03;100697.61;105295;1267;73602;-54
2023/03/13 03:12:01;;;;;;;2.20;0.40;;;;;;;-0.08;57.96;100696.44;105023;1263;60579;-54
2023/03/13 03:14:30;;;;;;;2.00;0.70;;;;;;;-0.08;58.03;100703.88;105840;1257;60397;-54
2023/03/13 03:16:59;;;;;;;1.50;0.40;;;;;;;-0.09;57.94;100706.31;105477;1257;74844;-54
2023/03/13 03:19:30;;;;;;;1.50;0.80;;;;;;;-0.10;57.89;100708.58;105667;1263;71093;-54
2023/03/13 03:21:59;;;;;;;2.30;0.50;;;;;;;-0.12;57.94;100710.55;105585;1254;73641;-54
2023/03/13 03:24:27;;;;;;;1.90;0.50;;;;;;;-0.15;57.97;100711.52;105421;1259;61301;-54
2023/03/13 03:26:55;;;;;;;1.80;0.40;;;;;;;-0.19;58.09;100710.22;105503;1260;61494;-54
2023/03/13 03:29:28;;;;;;;2.40;0.40;;;;;;;-0.21;58.20;100716.82;105501;1254;73981;-55
2023/03/13 03:31:56;;;;;;;2.70;0.80;;;;;;;-0.21;58.34;100722.02;105684;1259;71667;-55
2023/03/13 03:34:25;;;;;;;2.20;0.60;;;;;;;-0.21;58.37;100726.67;105941;1259;73503;-54
2023/03/13 03:36:55;;;;;;;1.50;0.20;;;;;;;-0.26;58.47;100731.47;105521;1257;60488;-54
2023/03/13 03:39:23;;;;;;;11.00;1.60;;;;;;;-0.31;58.62;100734.91;105445;1256;61179;-54
2023/03/13 03:41:53;;;;;;;3.50;0.60;;;;;;;-0.35;58.64;100739.67;105745;1259;74344;-54
2023/03/13 03:44:21;;;;;;;2.10;0.40;;;;;;;-0.39;58.85;100738.92;105489;1253;70940;-54
2023/03/13 03:46:57;;;;;;;3.80;0.50;;;;;;;-0.43;59.05;100738.52;105430;1258;73014;-55
2023/03/13 03:49:27;;;;;;;3.70;0.70;;;;;;;-0.44;59.30;100748.71;105466;1254;61348;-54
2023/03/13 03:51:56;;;;;;;2.50;0.50;;;;;;;-0.45;59.36;100758.59;105460;1257;61337;-54
2023/03/13 03:54:29;;;;;;;2.10;0.50;;;;;;;-0.40;59.43;100766.02;105480;1254;75384;-55
2023/03/13 03:56:58;;;;;;;4.20;0.50;;;;;;;-0.30;59.26;100771.42;105624;1254;70956;-54
2023/03/13 03:59:31;;;;;;;2.10;0.30;;;;;;;-0.22;59.27;100774.98;105774;1257;72589;-54
2023/03/13 04:02:06;;;;;;;1.90;0.50;;;;;;;-0.13;59.13;100780.92;105417;1258;62094;-54
2023/03/13 04:04:35;;;;;;;2.60;0.60;;;;;;;-0.06;58.88;100786.74;105904;1258;61125;-55
2023/03/13 04:07:22;;;;;;;2.30;0.70;;;;;;;-0.00;58.91;100790.04;105555;1259;65952;-54
2023/03/13 04:09:50;;;;;;;2.40;0.50;;;;;;;0.03;58.98;100795.48;105704;1263;71013;-53
2023/03/13 04:12:25;;;;;;;5.10;1.20;;;;;;;0.02;58.90;100795.49;105455;1257;73505;-54
2023/03/13 04:14:55;;;;;;;4.50;1.60;;;;;;;-0.01;58.71;100793.88;105337;1259;60508;-55
2023/03/13 04:17:24;;;;;;;3.50;0.90;;;;;;;-0.07;58.80;100796.80;105411;1258;60463;-55
2023/03/13 04:19:53;;;;;;;3.80;0.60;;;;;;;-0.10;58.88;100799.65;105405;1258;74846;-54
2023/03/13 04:22:21;;;;;;;3.80;0.80;;;;;;;-0.13;58.96;100805.42;105559;1259;71128;-54
2023/03/13 04:24:54;;;;;;;4.20;0.80;;;;;;;-0.15;58.99;100806.17;105687;1258;73246;-55
2023/03/13 04:27:23;;;;;;;3.00;1.10;;;;;;;-0.18;59.08;100804.35;105589;1258;60575;-55
2023/03/13 04:29:52;;;;;;;3.50;0.80;;;;;;;-0.21;59.06;100800.30;105609;1254;61643;-55
2023/03/13 04:32:40;;;;;;;3.30;1.00;;;;;;;-0.24;59.06;100803.98;105496;1259;66233;-55
2023/03/13 04:35:27;;;;;;;4.20;1.00;;;;;;;-0.25;59.19;100812.30;105347;1259;62570;-56
2023/03/13 04:38:14;;;;;;;2.10;0.40;;;;;;;-0.07;58.70;100813.88;105538;1260;64914;-55
2023/03/13 04:41:13;;;;;;;2.80;0.60;;;;;;;0.06;58.44;100810.73;105425;1254;60479;-55
2023/03/13 04:43:59;;;;;;;4.20;0.30;;;;;;;-0.03;58.64;100817.20;105454;1254;61577;-55
2023/03/13 04:46:59;;;;;;;2.10;0.50;;;;;;;-0.17;58.99;100822.43;105055;1266;65858;-54
2023/03/13 04:49:40;;;;;;;3.30;0.50;;;;;;;-0.18;59.10;100832.80;105629;1259;71439;-54
2023/03/13 04:52:32;;;;;;;1.90;0.50;;;;;;;-0.16;59.09;100836.88;105539;1255;65062;-54
2023/03/13 04:55:13;;;;;;;3.50;1.00;;;;;;;-0.14;59.11;100839.08;105521;1254;60904;-53
2023/03/13 04:58:02;;;;;;;3.60;1.10;;;;;;;-0.12;58.93;100845.23;105406;1260;60541;-53
2023/03/13 05:00:40;;;;;;;4.40;1.10;;;;;;;-0.10;59.11;100846.57;105604;1258;74836;-53
2023/03/13 05:03:22;;;;;;;3.70;0.70;;;;;;;-0.08;59.01;100842.87;105592;1257;71142;-54
2023/03/13 05:06:11;;;;;;;3.20;0.50;;;;;;;-0.05;58.98;100848.30;105189;1267;73853;-53
2023/03/13 05:09:08;;;;;;;1.60;0.50;;;;;;;-0.01;58.87;100850.96;105397;1256;60411;-53
2023/03/13 05:12:01;;;;;;;3.00;0.60;;;;;;;0.04;58.57;100847.19;105584;1258;61374;-53
2023/03/13 05:14:55;;;;;;;3.30;0.70;;;;;;;0.09;58.54;100850.33;105459;1258;66408;-53
2023/03/13 05:17:44;;;;;;;1.80;0.50;;;;;;;0.16;58.36;100852.71;105499;1255;71063;-54
2023/03/13 05:20:31;;;;;;;3.60;0.60;;;;;;;0.30;58.05;100853.66;105471;1254;73476;-53
2023/03/13 05:23:19;;;;;;;1.90;0.50;;;;;;;0.47;57.91;100858.50;105544;1254;61899;-54
2023/03/13 05:26:10;;;;;;;1.80;0.50;;;;;;;0.61;57.46;100857.73;105476;1254;60552;-53
2023/03/13 05:28:51;;;;;;;3.80;0.50;;;;;;;0.74;57.30;100865.29;105670;1259;73603;-53
2023/03/13 05:31:34;;;;;;;2.20;0.70;;;;;;;0.81;57.29;100870.25;105470;1255;71063;-54
2023/03/13 05:34:39;;;;;;;5.90;0.80;;;;;;;0.88;57.13;100867.94;104963;1264;65059;-53
2023/03/13 05:37:36;;;;;;;2.30;0.70;;;;;;;0.96;57.07;100868.92;105566;1254;60509;-53
2023/03/13 05:40:31;;;;;;;2.00;0.50;;;;;;;1.01;56.69;100874.25;105846;1260;60458;-53
2023/03/13 05:43:12;;;;;;;1.50;0.30;;;;;;;1.07;56.72;100875.28;105430;1260;74965;-53
2023/03/13 05:46:03;;;;;;;2.50;0.70;;;;;;;1.12;56.66;100879.96;105240;1255;62403;-53
2023/03/13 05:48:52;;;;;;;1.90;0.60;;;;;;;1.17;56.49;100888.23;105449;1254;64804;-53
2023/03/13 05:51:50;;;;;;;2.80;0.80;;;;;;;1.22;56.19;100893.45;104984;1263;61805;-51
2023/03/13 05:54:40;;;;;;;5.20;1.10;;;;;;;1.29;56.04;100900.14;105514;1254;61466;-52
2023/03/13 05:57:22;;;;;;;2.70;1.10;;;;;;;1.33;55.80;100901.20;105523;1257;75025;-53
2023/03/13 06:00:03;;;;;;;3.10;1.00;;;;;;;1.38;55.71;100905.55;105472;1257;71404;-51
2023/03/13 06:02:43;;;;;;;2.60;0.60;;;;;;;1.41;55.58;100899.73;105588;1259;72331;-51
2023/03/13 06:05:17;;;;;;;1.40;0.50;;;;;;;1.46;55.61;100905.61;105239;1254;60728;-53
2023/03/13 06:07:48;;;;;;;3.40;0.80;;;;;;;1.51;55.32;100903.36;105657;1258;61124;-53
2023/03/13 06:10:16;;;;;;;2.50;0.80;;;;;;;1.56;55.30;100907.35;105421;1260;74688;-52
2023/03/13 06:12:51;;;;;;;3.90;1.00;;;;;;;1.61;55.23;100908.53;105769;1259;71090;-53
2023/03/13 06:15:21;;;;;;;3.20;0.80;;;;;;;1.68;55.14;100905.73;105473;1258;73881;-51
2023/03/13 06:18:18;;;;;;;3.50;0.90;;;;;;;1.76;54.84;100905.98;105333;1254;60447;-51
2023/03/13 06:20:48;;;;;;;3.50;1.00;;;;;;;1.82;54.67;100908.18;105433;1255;61278;-52
2023/03/13 06:23:16;;;;;;;2.90;1.20;;;;;;;1.88;54.73;100908.50;105600;1254;74506;-52
2023/03/13 06:25:47;;;;;;;3.20;0.80;;;;;;;1.94;54.55;100907.77;105336;1257;71415;-52
2023/03/13 06:28:15;;;;;;;3.30;1.20;;;;;;;2.00;54.29;100911.54;105447;1254;73629;-50
2023/03/13 06:30:44;;;;;;;5.20;1.60;;;;;;;2.06;54.13;100914.61;105581;1255;60450;-51
2023/03/13 06:33:12;;;;;;;3.10;0.90;;;;;;;2.11;53.75;100914.45;105518;1257;61771;-52
2023/03/13 06:35:41;;;;;;;2.40;0.80;;;;;;;2.17;53.71;100916.30;105368;1258;74578;-51
2023/03/13 06:38:24;;;;;;;3.60;0.90;;;;;;;2.24;53.53;100916.20;105318;1257;62311;-52
2023/03/13 06:40:54;;;;;;;3.80;1.10;;;;;;;2.29;53.12;100919.83;105207;1257;73581;-52
2023/03/13 06:43:23;;;;;;;5.80;1.90;;;;;;;2.35;53.26;100925.48;105486;1254;60879;-51
2023/03/13 06:45:51;;;;;;;4.80;1.20;;;;;;;2.42;53.21;100929.40;105535;1257;61188;-52
2023/03/13 06:48:21;;;;;;;3.60;1.20;;;;;;;2.50;52.57;100930.66;105677;1254;72721;-53
2023/03/13 06:50:50;;;;;;;4.40;1.30;;;;;;;2.57;52.29;100934.55;105442;1254;71339;-51
2023/03/13 06:53:19;;;;;;;6.90;1.50;;;;;;;2.65;52.73;100937.88;105403;1254;73922;-54
2023/03/13 06:55:50;;;;;;;4.80;1.60;;;;;;;2.74;52.38;100932.84;105422;1254;60448;-53
2023/03/13 06:58:19;;;;;;;5.20;2.30;;;;;;;2.84;52.17;100938.04;106540;1257;62990;-54
2023/03/13 07:01:05;;;;;;;4.70;1.30;;;;;;;2.92;51.73;100936.30;105557;1254;75511;-54
2023/03/13 07:03:34;;;;;;;8.40;1.20;;;;;;;3.01;51.60;100943.94;105222;1254;71108;-54
2023/03/13 07:06:04;;;;;;;5.80;1.70;;;;;;;3.09;51.74;100950.20;105316;1255;71507;-55
2023/03/13 07:08:33;;;;;;;5.20;1.50;;;;;;;3.18;51.87;100952.79;106021;1255;60472;-53
2023/03/13 07:11:06;;;;;;;6.00;1.30;;;;;;;3.30;51.85;100957.71;105378;1257;60445;-55
2023/03/13 07:13:36;;;;;;;5.80;1.70;;;;;;;3.39;51.61;100955.96;105391;1254;73816;-54
2023/03/13 07:16:07;;;;;;;5.30;1.70;;;;;;;3.47;51.06;100956.99;105356;1258;71278;-54
2023/03/13 07:18:40;;;;;;;3.70;1.40;;;;;;;3.54;51.04;100951.84;105568;1254;73812;-53
2023/03/13 07:21:09;;;;;;;4.80;1.50;;;;;;;3.62;51.21;100953.98;106344;1255;60592;-53
2023/03/13 07:23:38;;;;;;;6.30;2.10;;;;;;;3.70;50.97;100954.66;105512;1253;60425;-55
2023/03/13 07:26:09;;;;;;;10.20;4.30;;;;;;;3.76;50.98;100953.73;105517;1254;73258;-53
2023/03/13 07:28:38;;;;;;;6.60;1.90;;;;;;;3.82;51.15;100959.02;105548;1254;71639;-54
2023/03/13 07:31:11;;;;;;;5.30;2.10;;;;;;;3.88;51.23;100955.11;105476;1254;73739;-53
2023/03/13 07:33:43;;;;;;;8.50;2.50;;;;;;;3.96;50.96;100961.40;105518;1254;61059;-53
2023/03/13 07:36:14;;;;;;;8.70;4.40;;;;;;;4.01;50.93;100959.08;105681;1254;61155;-53
2023/03/13 07:38:49;;;;;;;5.00;2.20;;;;;;;4.08;51.13;100963.63;105577;1254;76016;-51
2023/03/13 07:41:18;;;;;;;8.60;2.00;;;;;;;4.15;50.98;100959.17;105479;1254;71266;-52
2023/03/13 07:43:48;;;;;;;6.10;3.10;;;;;;;4.19;50.92;100959.66;105470;1257;73741;-52
2023/03/13 07:46:18;;;;;;;11.80;5.00;;;;;;;4.25;50.59;100958.05;105586;1254;60843;-53
2023/03/13 07:48:49;;;;;;;4.70;1.80;;;;;;;4.32;50.66;100957.73;105673;1257;61621;-53
2023/03/13 07:51:22;;;;;;;6.90;2.10;;;;;;;4.40;50.60;100955.95;105503;1258;74742;-53
2023/03/13 07:54:14;;;;;;;5.60;1.60;;;;;;;4.49;49.73;100951.90;105391;1253;62623;-53
2023/03/13 07:56:44;;;;;;;4.90;1.90;;;;;;;4.58;49.47;100950.29;105559;1257;72247;-53
2023/03/13 07:59:12;;;;;;;6.50;1.90;;;;;;;4.68;49.78;100948.27;105376;1253;60517;-56
2023/03/13 08:01:40;;;;;;;8.10;4.70;;;;;;;4.76;49.48;100945.80;105307;1253;61336;-54
2023/03/13 08:04:12;;;;;;;7.00;2.10;;;;;;;4.82;48.61;100945.15;105555;1253;74841;-54
2023/03/13 08:06:46;;;;;;;5.00;2.30;;;;;;;4.85;48.56;100938.09;105361;1254;71307;-55
2023/03/13 08:09:14;;;;;;;5.80;1.50;;;;;;;4.90;48.35;100938.88;105372;1257;72365;-57
2023/03/13 08:11:45;;;;;;;7.20;4.30;;;;;;;4.97;48.12;100938.70;105823;1254;60597;-54
2023/03/13 08:14:13;;;;;;;5.00;1.60;;;;;;;5.04;47.85;100934.75;109237;1253;59926;-54
2023/03/13 08:16:43;;;;;;;8.70;4.20;;;;;;;5.10;47.79;100937.06;109197;1254;72875;-54
2023/03/13 08:19:11;;;;;;;5.90;2.20;;;;;;;5.17;48.25;100939.33;109213;1254;69877;-55
2023/03/13 08:21:40;;;;;;;6.70;2.00;;;;;;;5.26;48.48;100940.82;109187;1254;73597;-54
2023/03/13 08:24:10;;;;;;;7.70;3.90;;;;;;;5.37;48.83;100938.89;109243;1254;59368;-55
2023/03/13 08:26:40;;;;;;;7.10;2.20;;;;;;;5.52;48.29;100943.87;106796;1254;61355;-55
2023/03/13 08:29:11;;;;;;;8.10;4.50;;;;;;;5.64;47.86;100945.39;107204;1254;73637;-55
2023/03/13 08:31:46;;;;;;;7.50;4.00;;;;;;;5.70;47.42;100944.70;105445;1254;71386;-54
2023/03/13 08:34:16;;;;;;;7.40;1.90;;;;;;;5.81;47.01;100942.08;105507;1258;72397;-54
2023/03/13 08:36:44;;;;;;;6.80;4.00;;;;;;;5.88;47.14;100942.25;105524;1257;60706;-53
2023/03/13 08:39:14;;;;;;;5.10;2.00;;;;;;;5.96;46.89;100939.05;105510;1257;60457;-54
2023/03/13 08:41:43;;;;;;;4.80;1.80;;;;;;;6.07;46.70;100945.98;105626;1254;75012;-54
2023/03/13 08:44:13;;;;;;;8.60;2.80;;;;;;;6.13;46.64;100950.38;105473;1257;71361;-55
2023/03/13 08:46:42;;;;;;;12.10;4.40;;;;;;;6.20;46.74;100949.16;105506;1259;72686;-54
2023/03/13 08:49:12;;;;;;;6.30;3.50;;;;;;;6.28;46.59;100946.83;105383;1253;60573;-55
2023/03/13 08:51:41;;;;;;;7.30;3.60;;;;;;;6.35;45.82;100943.33;105510;1254;61331;-56
2023/03/13 08:54:09;;;;;;;9.90;4.20;;;;;;;6.40;45.34;100938.16;105600;1253;73886;-53
2023/03/13 08:56:39;;;;;;;9.10;4.10;;;;;;;6.44;44.99;100937.05;105474;1257;71512;-56
2023/03/13 08:59:09;;;;;;;7.80;4.00;;;;;;;6.47;44.60;100939.89;105899;1253;75677;-56
2023/03/13 09:01:37;;;;;;;4.80;1.80;;;;;;;6.49;44.78;100947.42;106082;1254;60432;-54
2023/03/13 09:04:06;;;;;;;9.30;3.90;;;;;;;6.54;43.96;100952.95;105728;1254;61247;-54
2023/03/13 09:06:36;;;;;;;9.50;4.10;;;;;;;6.58;43.26;100952.90;105546;1256;75371;-55
2023/03/13 09:09:05;;;;;;;7.70;3.90;;;;;;;6.59;43.31;100951.79;105515;1257;70986;-54
2023/03/13 09:11:40;;;;;;;7.70;3.80;;;;;;;6.61;43.69;100947.36;105455;1258;71674;-54
2023/03/13 09:14:09;;;;;;;10.60;4.40;;;;;;;6.65;43.92;100951.29;105669;1254;60582;-54
2023/03/13 09:16:37;;;;;;;7.80;4.20;;;;;;;6.69;44.37;100946.17;105457;1253;61290;-55
2023/03/13 09:19:06;;;;;;;7.80;4.00;;;;;;;6.75;44.18;100949.36;105553;1257;74518;-54
2023/03/13 09:21:40;;;;;;;10.60;4.80;;;;;;;6.80;43.64;100945.27;105491;1254;70898;-54
2023/03/13 09:24:09;;;;;;;8.10;4.60;;;;;;;6.84;44.12;100935.77;106745;1254;73496;-55
2023/03/13 09:26:38;;;;;;;13.30;2.80;;;;;;;6.89;44.92;100931.86;105510;1253;60406;-55
2023/03/13 09:29:13;;;;;;;5.20;1.80;;;;;;;6.99;44.80;100935.15;105871;1254;60926;-54
2023/03/13 09:31:42;;;;;;;7.80;4.00;;;;;;;7.13;44.67;100934.54;105713;1257;73785;-55
2023/03/13 09:34:10;;;;;;;7.20;2.00;;;;;;;7.26;43.69;100934.63;105500;1254;71240;-54
2023/03/13 09:36:39;;;;;;;7.70;4.00;;;;;;;7.37;43.43;100939.98;105611;1258;72320;-54
2023/03/13 09:39:08;;;;;;;8.00;4.70;;;;;;;7.43;43.00;100933.69;105459;1254;60656;-53
2023/03/13 09:42:10;;;;;;;8.20;3.70;;;;;;;7.41;42.86;100926.94;105335;1253;60467;-54
2023/03/13 09:45:03;;;;;;;7.50;4.40;;;;;;;7.36;43.09;100929.54;105558;1254;66504;-55
2023/03/13 09:47:45;;;;;;;6.90;3.90;;;;;;;7.39;43.62;100923.59;105493;1257;61664;-55
2023/03/13 09:50:24;;;;;;;6.60;3.80;;;;;;;7.48;43.70;100920.27;105609;1254;72336;-54
2023/03/13 09:52:55;;;;;;;8.70;4.70;;;;;;;7.57;43.04;100918.20;105351;1254;60507;-55
2023/03/13 09:55:33;;;;;;;8.90;3.50;;;;;;;7.59;43.01;100913.87;105512;1254;61724;-56
2023/03/13 09:58:23;;;;;;;10.20;3.90;;;;;;;7.61;42.56;100910.59;105492;1253;73538;-53
2023/03/13 10:01:03;;;;;;;9.90;4.00;;;;;;;7.61;42.32;100905.73;105583;1253;61906;-54
2023/03/13 10:04:20;;;;;;;6.40;3.40;;;;;;;7.61;42.63;100906.27;105508;1257;73642;-56
2023/03/13 10:06:48;;;;;;;5.20;1.90;;;;;;;7.64;42.27;100905.38;105431;1258;60821;-54
2023/03/13 10:09:32;;;;;;;8.00;4.00;;;;;;;7.72;41.97;100901.96;105470;1253;60563;-55
2023/03/13 10:12:17;;;;;;;7.00;3.70;;;;;;;7.77;41.26;100903.70;105423;1255;74810;-54
2023/03/13 10:14:57;;;;;;;6.50;3.70;;;;;;;7.80;40.85;100905.10;105460;1257;62437;-54
2023/03/13 10:17:36;;;;;;;8.30;3.80;;;;;;;7.81;40.84;100895.78;105534;1260;75395;-55
2023/03/13 10:20:32;;;;;;;4.50;1.70;;;;;;;7.83;40.77;100895.38;105599;1253;60476;-55
2023/03/13 10:23:13;;;;;;;7.80;3.60;;;;;;;7.82;40.94;100892.80;105482;1257;60358;-55
2023/03/13 10:25:42;;;;;;;8.80;4.20;;;;;;;7.84;41.06;100892.30;105463;1258;75438;-54
2023/03/13 10:28:12;;;;;;;8.70;3.90;;;;;;;7.89;40.97;100889.42;105606;1254;71053;-56
2023/03/13 10:31:07;;;;;;;8.00;4.20;;;;;;;7.98;41.49;100884.14;105454;1256;74066;-55
2023/03/13 10:33:36;;;;;;;7.20;3.70;;;;;;;8.15;41.08;100872.08;105585;1255;60725;-56
2023/03/13 10:36:09;;;;;;;7.30;3.70;;;;;;;8.25;40.76;100873.20;105593;1254;61365;-55
2023/03/13 10:38:49;;;;;;;6.30;3.70;;;;;;;8.29;40.76;100868.04;105544;1257;73751;-54
2023/03/13 10:41:43;;;;;;;5.10;1.80;;;;;;;8.40;40.87;100866.19;105489;1253;71171;-54
2023/03/13 10:44:14;;;;;;;9.70;4.90;;;;;;;8.48;40.31;100865.50;105413;1257;63836;-54
2023/03/13 10:46:45;;;;;;;7.90;3.60;;;;;;;8.54;40.68;100867.25;105528;1254;60691;-55
2023/03/13 10:49:18;;;;;;;7.80;3.50;;;;;;;8.63;40.82;100864.02;105542;1253;60969;-54
2023/03/13 10:51:53;;;;;;;7.40;4.40;;;;;;;8.75;40.81;100862.39;105470;1254;74820;-54
2023/03/13 10:54:28;;;;;;;7.80;4.00;;;;;;;8.86;40.57;100858.34;105516;1257;71022;-54
2023/03/13 10:57:18;;;;;;;8.10;4.20;;;;;;;8.94;39.94;100857.85;105664;1253;73617;-56
2023/03/13 10:59:51;;;;;;;7.50;3.90;;;;;;;8.92;40.14;100852.32;105307;1253;225869;-56
2023/03/13 11:15:56;;;;;;;6.30;3.40;;;;;;;9.42;39.97;100815.15;102967;1288;613675;-55
2023/03/13 11:18:30;;;;;;;7.60;4.00;;;;;;;9.85;39.90;100806.82;104522;1268;88202;-54
2023/03/13 11:20:58;;;;;;;7.50;3.70;;;;;;;10.02;39.32;100802.50;104719;1272;61348;-54
2023/03/13 11:23:48;;;;;;;8.10;3.90;;;;;;;10.11;39.30;100796.45;104556;1266;73262;-54
2023/03/13 11:26:21;;;;;;;10.00;4.00;;;;;;;10.16;39.13;100793.97;104881;1267;70095;-54
2023/03/13 11:29:16;;;;;;;6.60;3.40;;;;;;;10.24;38.79;100793.06;104656;1267;65060;-55
2023/03/13 11:31:50;;;;;;;8.50;3.30;;;;;;;10.25;37.99;100795.09;104709;1266;59961;-55
2023/03/13 11:34:24;;;;;;;8.70;3.70;;;;;;;10.17;38.17;100786.15;105418;1265;59393;-54
2023/03/13 11:37:01;;;;;;;6.70;3.50;;;;;;;10.10;38.16;100782.52;104724;1267;64319;-54
2023/03/13 11:39:51;;;;;;;6.00;3.30;;;;;;;10.02;38.28;100776.57;105249;1259;62464;-55
2023/03/13 11:42:38;;;;;;;8.30;3.60;;;;;;;9.94;38.17;100780.50;105490;1260;65194;-55
2023/03/13 11:45:32;;;;;;;7.10;3.90;;;;;;;9.85;38.66;100771.66;105255;1259;59561;-55
2023/03/13 11:48:07;;;;;;;6.30;3.10;;;;;;;9.80;38.78;100769.66;105272;1258;59760;-57
2023/03/13 11:50:46;;;;;;;;;;;;;;;9.85;38.60;100772.48;105382;1262;72985;-56
2023/03/13 11:53:45;;;;;;;6.30;3.40;;;;;;;9.88;38.33;100763.38;105305;1260;71162;-53
2023/03/13 11:56:22;;;;;;;6.70;3.50;;;;;;;9.86;38.35;100761.19;105181;1260;64881;-55
2023/03/13 11:59:25;;;;;;;7.20;3.60;;;;;;;9.87;37.40;100760.82;105365;1262;60222;-54
2023/03/13 12:02:17;;;;;;;6.50;3.00;;;;;;;9.80;37.96;100763.73;105504;1258;59606;-54
2023/03/13 12:05:17;;;;;;;8.20;3.50;;;;;;;9.81;38.25;100760.14;105311;1262;64254;-54
2023/03/13 12:07:59;;;;;;;6.00;3.20;;;;;;;9.80;37.44;100762.54;105358;1260;62681;-55
2023/03/13 12:10:34;;;;;;;6.30;3.40;;;;;;;9.74;37.52;100757.88;105362;1260;73653;-56
2023/03/13 12:13:02;;;;;;;10.30;3.70;;;;;;;9.74;37.92;100755.25;105312;1258;59803;-55